sensor_id;sensor_type;location;lat;lon;timestamp;P1;durP1;ratioP1;P2;durP2;ratioP2
76896;SDS011;65856;52.178;21.176;2023-06-10T00:02:03;11.00;;;8.30;;
76896;SDS011;65856;52.178;21.176;2023-06-10T00:04:29;10.40;;;8.40;;
76896;SDS011;65856;52.178;21.176;2023-06-10T00:06:54;11.70;;;8.10;;
76896;SDS011;65856;52.178;21.176;2023-06-10T00:09:20;11.50;;;8.60;;
76896;SDS011;65856;52.178;21.176;2023-06-10T00:11:47;12.60;;;8.90;;
76896;SDS011;65856;52.178;21.176;2023-06-10T00:14:13;12.00;;;7.90;;
76896;SDS011;65856;52.178;21.176;2023-06-10T00:16:39;10.60;;;8.40;;
76896;SDS011;65856;52.178;21.176;2023-06-10T00:19:04;12.00;;;8.60;;
76896;SDS011;65856;52.178;21.176;2023-06-10T00:21:32;12.10;;;8.50;;
76896;SDS011;65856;52.178;21.176;2023-06-10T00:24:06;11.10;;;8.50;;
76896;SDS011;65856;52.178;21.176;2023-06-10T00:26:39;9.20;;;8.20;;
76896;SDS011;65856;52.178;21.176;2023-06-10T00:29:06;11.40;;;8.40;;
76896;SDS011;65856;52.178;21.176;2023-06-10T00:31:37;10.30;;;8.50;;
76896;SDS011;65856;52.178;21.176;2023-06-10T00:34:03;12.90;;;8.50;;
76896;SDS011;65856;52.178;21.176;2023-06-10T00:36:29;9.50;;;7.50;;
76896;SDS011;65856;52.178;21.176;2023-06-10T00:38:56;9.20;;;7.30;;
76896;SDS011;65856;52.178;21.176;2023-06-10T00:41:22;11.30;;;7.00;;
76896;SDS011;65856;52.178;21.176;2023-06-10T00:43:48;8.40;;;7.30;;
76896;SDS011;65856;52.178;21.176;2023-06-10T00:46:14;10.90;;;6.90;;
76896;SDS011;65856;52.178;21.176;2023-06-10T00:48:41;8.20;;;6.80;;
76896;SDS011;65856;52.178;21.176;2023-06-10T00:51:09;8.40;;;6.50;;
76896;SDS011;65856;52.178;21.176;2023-06-10T00:53:36;8.00;;;6.30;;
76896;SDS011;65856;52.178;21.176;2023-06-10T00:56:05;7.80;;;6.20;;
76896;SDS011;65856;52.178;21.176;2023-06-10T00:58:31;7.50;;;6.30;;
76896;SDS011;65856;52.178;21.176;2023-06-10T01:00:56;10.00;;;6.60;;
76896;SDS011;65856;52.178;21.176;2023-06-10T01:03:23;9.60;;;6.70;;
76896;SDS011;65856;52.178;21.176;2023-06-10T01:05:54;8.50;;;6.60;;
76896;SDS011;65856;52.178;21.176;2023-06-10T01:08:53;12.20;;;6.30;;
76896;SDS011;65856;52.178;21.176;2023-06-10T01:11:31;10.90;;;6.20;;
76896;SDS011;65856;52.178;21.176;2023-06-10T01:14:13;8.30;;;6.50;;
76896;SDS011;65856;52.178;21.176;2023-06-10T01:16:39;8.10;;;6.40;;
76896;SDS011;65856;52.178;21.176;2023-06-10T01:19:06;6.50;;;5.60;;
76896;SDS011;65856;52.178;21.176;2023-06-10T01:21:32;8.60;;;5.90;;
76896;SDS011;65856;52.178;21.176;2023-06-10T01:23:58;7.80;;;5.90;;
76896;SDS011;65856;52.178;21.176;2023-06-10T01:26:30;11.30;;;5.90;;
76896;SDS011;65856;52.178;21.176;2023-06-10T01:29:26;11.40;;;6.20;;
76896;SDS011;65856;52.178;21.176;2023-06-10T01:32:16;6.70;;;5.70;;
76896;SDS011;65856;52.178;21.176;2023-06-10T01:34:49;8.50;;;5.50;;
76896;SDS011;65856;52.178;21.176;2023-06-10T01:37:18;9.60;;;5.50;;
76896;SDS011;65856;52.178;21.176;2023-06-10T01:39:47;7.50;;;5.60;;
76896;SDS011;65856;52.178;21.176;2023-06-10T01:42:15;8.00;;;5.30;;
76896;SDS011;65856;52.178;21.176;2023-06-10T01:44:41;8.80;;;5.30;;
76896;SDS011;65856;52.178;21.176;2023-06-10T01:47:07;7.50;;;5.10;;
76896;SDS011;65856;52.178;21.176;2023-06-10T01:49:34;8.50;;;5.10;;
76896;SDS011;65856;52.178;21.176;2023-06-10T01:52:00;8.50;;;5.40;;
76896;SDS011;65856;52.178;21.176;2023-06-10T01:54:25;8.80;;;4.90;;
76896;SDS011;65856;52.178;21.176;2023-06-10T01:56:51;8.30;;;4.20;;
76896;SDS011;65856;52.178;21.176;2023-06-10T01:59:17;8.20;;;4.70;;
76896;SDS011;65856;52.178;21.176;2023-06-10T02:01:42;5.40;;;4.10;;
76896;SDS011;65856;52.178;21.176;2023-06-10T02:04:08;7.40;;;4.60;;
76896;SDS011;65856;52.178;21.176;2023-06-10T02:06:33;8.00;;;4.60;;
76896;SDS011;65856;52.178;21.176;2023-06-10T02:09:00;7.70;;;4.60;;
76896;SDS011;65856;52.178;21.176;2023-06-10T02:11:26;8.10;;;4.60;;
76896;SDS011;65856;52.178;21.176;2023-06-10T02:13:52;7.70;;;4.60;;
76896;SDS011;65856;52.178;21.176;2023-06-10T02:16:17;5.50;;;3.90;;
76896;SDS011;65856;52.178;21.176;2023-06-10T02:18:44;8.10;;;4.60;;
76896;SDS011;65856;52.178;21.176;2023-06-10T02:21:10;8.70;;;4.70;;
76896;SDS011;65856;52.178;21.176;2023-06-10T02:23:35;5.70;;;4.40;;
76896;SDS011;65856;52.178;21.176;2023-06-10T02:26:01;8.10;;;4.20;;
76896;SDS011;65856;52.178;21.176;2023-06-10T02:28:27;8.20;;;4.10;;
76896;SDS011;65856;52.178;21.176;2023-06-10T02:30:53;7.30;;;4.20;;
76896;SDS011;65856;52.178;21.176;2023-06-10T02:33:19;8.50;;;4.30;;
76896;SDS011;65856;52.178;21.176;2023-06-10T02:35:45;5.70;;;4.20;;
76896;SDS011;65856;52.178;21.176;2023-06-10T02:38:10;7.40;;;4.10;;
76896;SDS011;65856;52.178;21.176;2023-06-10T02:40:36;6.40;;;4.40;;
76896;SDS011;65856;52.178;21.176;2023-06-10T02:43:01;9.00;;;4.20;;
76896;SDS011;65856;52.178;21.176;2023-06-10T02:45:27;9.60;;;4.20;;
76896;SDS011;65856;52.178;21.176;2023-06-10T02:47:52;13.60;;;4.40;;
76896;SDS011;65856;52.178;21.176;2023-06-10T02:50:18;9.70;;;4.40;;
76896;SDS011;65856;52.178;21.176;2023-06-10T02:52:44;6.10;;;4.40;;
76896;SDS011;65856;52.178;21.176;2023-06-10T02:55:09;7.80;;;4.40;;
76896;SDS011;65856;52.178;21.176;2023-06-10T02:57:35;9.40;;;4.40;;
76896;SDS011;65856;52.178;21.176;2023-06-10T03:00:00;6.00;;;4.00;;
76896;SDS011;65856;52.178;21.176;2023-06-10T03:02:27;8.90;;;4.40;;
76896;SDS011;65856;52.178;21.176;2023-06-10T03:04:55;9.80;;;4.30;;
76896;SDS011;65856;52.178;21.176;2023-06-10T03:07:21;8.30;;;4.20;;
76896;SDS011;65856;52.178;21.176;2023-06-10T03:09:46;8.90;;;4.70;;
76896;SDS011;65856;52.178;21.176;2023-06-10T03:12:12;5.90;;;4.10;;
76896;SDS011;65856;52.178;21.176;2023-06-10T03:14:37;7.90;;;4.00;;
76896;SDS011;65856;52.178;21.176;2023-06-10T03:17:04;7.80;;;4.30;;
76896;SDS011;65856;52.178;21.176;2023-06-10T03:19:31;12.60;;;4.30;;
76896;SDS011;65856;52.178;21.176;2023-06-10T03:22:08;9.80;;;4.10;;
76896;SDS011;65856;52.178;21.176;2023-06-10T03:24:37;7.30;;;3.90;;
76896;SDS011;65856;52.178;21.176;2023-06-10T03:27:07;7.00;;;4.00;;
76896;SDS011;65856;52.178;21.176;2023-06-10T03:29:33;6.20;;;4.30;;
76896;SDS011;65856;52.178;21.176;2023-06-10T03:31:59;8.20;;;4.00;;
76896;SDS011;65856;52.178;21.176;2023-06-10T03:34:24;8.30;;;4.00;;
76896;SDS011;65856;52.178;21.176;2023-06-10T03:36:50;7.70;;;4.10;;
76896;SDS011;65856;52.178;21.176;2023-06-10T03:39:15;10.30;;;4.00;;
76896;SDS011;65856;52.178;21.176;2023-06-10T03:41:41;13.20;;;4.30;;
76896;SDS011;65856;52.178;21.176;2023-06-10T03:44:06;7.00;;;4.10;;
76896;SDS011;65856;52.178;21.176;2023-06-10T03:46:32;8.00;;;4.00;;
76896;SDS011;65856;52.178;21.176;2023-06-10T03:48:58;8.70;;;3.90;;
76896;SDS011;65856;52.178;21.176;2023-06-10T03:51:26;5.70;;;3.90;;
76896;SDS011;65856;52.178;21.176;2023-06-10T03:53:52;5.70;;;4.00;;
76896;SDS011;65856;52.178;21.176;2023-06-10T03:56:18;8.40;;;3.90;;
76896;SDS011;65856;52.178;21.176;2023-06-10T03:58:43;7.00;;;4.00;;
76896;SDS011;65856;52.178;21.176;2023-06-10T04:01:09;8.80;;;3.80;;
76896;SDS011;65856;52.178;21.176;2023-06-10T04:03:35;5.80;;;3.90;;
76896;SDS011;65856;52.178;21.176;2023-06-10T04:06:01;9.00;;;4.20;;
76896;SDS011;65856;52.178;21.176;2023-06-10T04:08:27;9.30;;;4.10;;
76896;SDS011;65856;52.178;21.176;2023-06-10T04:10:53;9.40;;;4.00;;
76896;SDS011;65856;52.178;21.176;2023-06-10T04:13:19;7.20;;;3.80;;
76896;SDS011;65856;52.178;21.176;2023-06-10T04:15:44;10.50;;;4.10;;
76896;SDS011;65856;52.178;21.176;2023-06-10T04:18:10;5.70;;;4.00;;
76896;SDS011;65856;52.178;21.176;2023-06-10T04:20:36;9.10;;;4.30;;
76896;SDS011;65856;52.178;21.176;2023-06-10T04:23:01;7.60;;;4.10;;
76896;SDS011;65856;52.178;21.176;2023-06-10T04:25:27;7.20;;;4.00;;
76896;SDS011;65856;52.178;21.176;2023-06-10T04:27:53;11.30;;;4.10;;
76896;SDS011;65856;52.178;21.176;2023-06-10T04:30:19;7.30;;;4.00;;
76896;SDS011;65856;52.178;21.176;2023-06-10T04:32:45;8.70;;;3.80;;
76896;SDS011;65856;52.178;21.176;2023-06-10T04:35:12;7.50;;;3.80;;
76896;SDS011;65856;52.178;21.176;2023-06-10T04:37:41;5.40;;;4.10;;
76896;SDS011;65856;52.178;21.176;2023-06-10T04:40:07;6.60;;;3.80;;
76896;SDS011;65856;52.178;21.176;2023-06-10T04:42:34;7.00;;;4.20;;
76896;SDS011;65856;52.178;21.176;2023-06-10T04:45:01;7.80;;;3.90;;
76896;SDS011;65856;52.178;21.176;2023-06-10T04:47:29;6.30;;;3.90;;
76896;SDS011;65856;52.178;21.176;2023-06-10T04:49:58;8.00;;;3.70;;
76896;SDS011;65856;52.178;21.176;2023-06-10T04:52:27;5.10;;;3.90;;
76896;SDS011;65856;52.178;21.176;2023-06-10T04:54:53;5.00;;;3.70;;
76896;SDS011;65856;52.178;21.176;2023-06-10T04:57:20;11.10;;;3.80;;
76896;SDS011;65856;52.178;21.176;2023-06-10T04:59:46;6.90;;;3.60;;
76896;SDS011;65856;52.178;21.176;2023-06-10T05:02:13;7.20;;;3.60;;
76896;SDS011;65856;52.178;21.176;2023-06-10T05:04:38;7.60;;;3.70;;
76896;SDS011;65856;52.178;21.176;2023-06-10T05:07:04;8.00;;;3.70;;
76896;SDS011;65856;52.178;21.176;2023-06-10T05:09:30;10.20;;;3.70;;
76896;SDS011;65856;52.178;21.176;2023-06-10T05:11:56;6.90;;;3.70;;
76896;SDS011;65856;52.178;21.176;2023-06-10T05:14:22;11.10;;;4.00;;
76896;SDS011;65856;52.178;21.176;2023-06-10T05:16:48;7.20;;;3.80;;
76896;SDS011;65856;52.178;21.176;2023-06-10T05:19:14;9.40;;;3.90;;
76896;SDS011;65856;52.178;21.176;2023-06-10T05:21:41;7.50;;;3.60;;
76896;SDS011;65856;52.178;21.176;2023-06-10T05:24:07;6.60;;;3.90;;
76896;SDS011;65856;52.178;21.176;2023-06-10T05:26:33;6.70;;;3.30;;
76896;SDS011;65856;52.178;21.176;2023-06-10T05:29:04;7.30;;;3.80;;
76896;SDS011;65856;52.178;21.176;2023-06-10T05:31:30;5.50;;;3.70;;
76896;SDS011;65856;52.178;21.176;2023-06-10T05:33:56;10.00;;;4.00;;
76896;SDS011;65856;52.178;21.176;2023-06-10T05:36:21;7.10;;;3.80;;
76896;SDS011;65856;52.178;21.176;2023-06-10T05:38:47;6.40;;;3.80;;
76896;SDS011;65856;52.178;21.176;2023-06-10T05:41:13;6.20;;;3.70;;
76896;SDS011;65856;52.178;21.176;2023-06-10T05:43:38;8.40;;;3.70;;
76896;SDS011;65856;52.178;21.176;2023-06-10T05:46:04;11.90;;;3.70;;
76896;SDS011;65856;52.178;21.176;2023-06-10T05:48:29;9.70;;;3.80;;
76896;SDS011;65856;52.178;21.176;2023-06-10T05:50:55;8.20;;;3.70;;
76896;SDS011;65856;52.178;21.176;2023-06-10T05:53:20;5.20;;;3.40;;
76896;SDS011;65856;52.178;21.176;2023-06-10T05:55:46;6.10;;;3.70;;
76896;SDS011;65856;52.178;21.176;2023-06-10T05:58:13;4.80;;;3.40;;
76896;SDS011;65856;52.178;21.176;2023-06-10T06:00:39;8.40;;;3.70;;
76896;SDS011;65856;52.178;21.176;2023-06-10T06:03:08;8.10;;;3.60;;
76896;SDS011;65856;52.178;21.176;2023-06-10T06:05:35;5.90;;;3.70;;
76896;SDS011;65856;52.178;21.176;2023-06-10T06:08:03;6.00;;;3.30;;
76896;SDS011;65856;52.178;21.176;2023-06-10T06:10:44;10.70;;;4.00;;
76896;SDS011;65856;52.178;21.176;2023-06-10T06:13:10;7.40;;;3.60;;
76896;SDS011;65856;52.178;21.176;2023-06-10T06:15:36;7.70;;;4.10;;
76896;SDS011;65856;52.178;21.176;2023-06-10T06:18:01;6.20;;;3.80;;
76896;SDS011;65856;52.178;21.176;2023-06-10T06:20:27;5.90;;;3.70;;
76896;SDS011;65856;52.178;21.176;2023-06-10T06:22:52;5.40;;;3.60;;
76896;SDS011;65856;52.178;21.176;2023-06-10T06:25:18;8.20;;;4.10;;
76896;SDS011;65856;52.178;21.176;2023-06-10T06:27:43;7.70;;;3.40;;
76896;SDS011;65856;52.178;21.176;2023-06-10T06:30:09;8.60;;;4.00;;
76896;SDS011;65856;52.178;21.176;2023-06-10T06:32:35;6.80;;;3.80;;
76896;SDS011;65856;52.178;21.176;2023-06-10T06:35:01;11.00;;;4.40;;
76896;SDS011;65856;52.178;21.176;2023-06-10T06:37:26;6.40;;;3.70;;
76896;SDS011;65856;52.178;21.176;2023-06-10T06:39:53;8.00;;;3.90;;
76896;SDS011;65856;52.178;21.176;2023-06-10T06:42:19;12.50;;;4.20;;
76896;SDS011;65856;52.178;21.176;2023-06-10T06:44:46;7.00;;;3.80;;
76896;SDS011;65856;52.178;21.176;2023-06-10T06:47:13;7.40;;;3.70;;
76896;SDS011;65856;52.178;21.176;2023-06-10T06:49:39;6.80;;;3.60;;
76896;SDS011;65856;52.178;21.176;2023-06-10T06:52:04;8.80;;;3.80;;
76896;SDS011;65856;52.178;21.176;2023-06-10T06:54:31;6.70;;;3.90;;
76896;SDS011;65856;52.178;21.176;2023-06-10T06:56:56;6.00;;;3.60;;
76896;SDS011;65856;52.178;21.176;2023-06-10T06:59:22;9.40;;;4.00;;
76896;SDS011;65856;52.178;21.176;2023-06-10T07:01:48;6.00;;;4.20;;
76896;SDS011;65856;52.178;21.176;2023-06-10T07:04:15;7.00;;;3.80;;
76896;SDS011;65856;52.178;21.176;2023-06-10T07:06:41;5.70;;;3.70;;
76896;SDS011;65856;52.178;21.176;2023-06-10T07:09:09;7.30;;;3.60;;
76896;SDS011;65856;52.178;21.176;2023-06-10T07:11:35;7.10;;;3.50;;
76896;SDS011;65856;52.178;21.176;2023-06-10T07:14:00;7.70;;;4.00;;
76896;SDS011;65856;52.178;21.176;2023-06-10T07:16:26;7.40;;;3.80;;
76896;SDS011;65856;52.178;21.176;2023-06-10T07:18:52;9.60;;;3.70;;
76896;SDS011;65856;52.178;21.176;2023-06-10T07:21:18;8.00;;;3.60;;
76896;SDS011;65856;52.178;21.176;2023-06-10T07:23:44;7.50;;;3.90;;
76896;SDS011;65856;52.178;21.176;2023-06-10T07:26:12;7.80;;;3.60;;
76896;SDS011;65856;52.178;21.176;2023-06-10T07:28:39;5.90;;;4.00;;
76896;SDS011;65856;52.178;21.176;2023-06-10T07:31:07;5.90;;;4.40;;
76896;SDS011;65856;52.178;21.176;2023-06-10T07:33:33;7.30;;;3.90;;
76896;SDS011;65856;52.178;21.176;2023-06-10T07:36:00;7.20;;;4.00;;
76896;SDS011;65856;52.178;21.176;2023-06-10T07:38:26;5.70;;;3.90;;
76896;SDS011;65856;52.178;21.176;2023-06-10T07:40:52;6.90;;;3.70;;
76896;SDS011;65856;52.178;21.176;2023-06-10T07:43:18;4.90;;;3.80;;
76896;SDS011;65856;52.178;21.176;2023-06-10T07:45:44;6.40;;;4.20;;
76896;SDS011;65856;52.178;21.176;2023-06-10T07:48:10;7.30;;;3.60;;
76896;SDS011;65856;52.178;21.176;2023-06-10T07:50:36;6.90;;;3.50;;
76896;SDS011;65856;52.178;21.176;2023-06-10T07:53:02;7.00;;;3.70;;
76896;SDS011;65856;52.178;21.176;2023-06-10T07:55:28;9.90;;;4.00;;
76896;SDS011;65856;52.178;21.176;2023-06-10T07:57:54;8.00;;;3.80;;
76896;SDS011;65856;52.178;21.176;2023-06-10T08:00:20;7.50;;;3.90;;
76896;SDS011;65856;52.178;21.176;2023-06-10T08:02:46;6.60;;;3.60;;
76896;SDS011;65856;52.178;21.176;2023-06-10T08:05:12;6.60;;;3.70;;
76896;SDS011;65856;52.178;21.176;2023-06-10T08:07:42;6.30;;;3.90;;
76896;SDS011;65856;52.178;21.176;2023-06-10T08:10:08;4.70;;;4.10;;
76896;SDS011;65856;52.178;21.176;2023-06-10T08:12:35;5.20;;;3.60;;
76896;SDS011;65856;52.178;21.176;2023-06-10T08:15:02;6.80;;;3.80;;
76896;SDS011;65856;52.178;21.176;2023-06-10T08:17:29;10.20;;;3.90;;
76896;SDS011;65856;52.178;21.176;2023-06-10T08:19:55;6.20;;;3.80;;
76896;SDS011;65856;52.178;21.176;2023-06-10T08:22:21;8.00;;;3.70;;
76896;SDS011;65856;52.178;21.176;2023-06-10T08:24:47;6.80;;;3.60;;
76896;SDS011;65856;52.178;21.176;2023-06-10T08:27:12;8.60;;;3.40;;
76896;SDS011;65856;52.178;21.176;2023-06-10T08:29:38;12.20;;;3.90;;
76896;SDS011;65856;52.178;21.176;2023-06-10T08:32:05;7.90;;;3.70;;
76896;SDS011;65856;52.178;21.176;2023-06-10T08:34:35;6.70;;;3.50;;
76896;SDS011;65856;52.178;21.176;2023-06-10T08:37:01;4.60;;;3.60;;
76896;SDS011;65856;52.178;21.176;2023-06-10T08:39:28;5.90;;;3.70;;
76896;SDS011;65856;52.178;21.176;2023-06-10T08:47:45;3.50;;;3.20;;
76896;SDS011;65856;52.178;21.176;2023-06-10T08:50:11;5.10;;;3.60;;
76896;SDS011;65856;52.178;21.176;2023-06-10T08:52:42;4.40;;;3.60;;
76896;SDS011;65856;52.178;21.176;2023-06-10T08:55:33;5.00;;;3.90;;
76896;SDS011;65856;52.178;21.176;2023-06-10T08:58:02;10.60;;;3.70;;
76896;SDS011;65856;52.178;21.176;2023-06-10T09:00:29;4.20;;;3.70;;
76896;SDS011;65856;52.178;21.176;2023-06-10T09:02:58;8.40;;;3.70;;
76896;SDS011;65856;52.178;21.176;2023-06-10T09:05:24;5.90;;;3.60;;
76896;SDS011;65856;52.178;21.176;2023-06-10T09:07:52;4.90;;;3.50;;
76896;SDS011;65856;52.178;21.176;2023-06-10T09:10:19;11.50;;;3.60;;
76896;SDS011;65856;52.178;21.176;2023-06-10T09:12:44;7.80;;;3.30;;
76896;SDS011;65856;52.178;21.176;2023-06-10T09:15:10;8.00;;;3.30;;
76896;SDS011;65856;52.178;21.176;2023-06-10T09:17:38;6.10;;;3.40;;
76896;SDS011;65856;52.178;21.176;2023-06-10T09:20:06;5.70;;;3.80;;
76896;SDS011;65856;52.178;21.176;2023-06-10T09:22:34;7.60;;;3.70;;
76896;SDS011;65856;52.178;21.176;2023-06-10T09:25:07;12.30;;;3.50;;
76896;SDS011;65856;52.178;21.176;2023-06-10T09:27:45;9.20;;;3.40;;
76896;SDS011;65856;52.178;21.176;2023-06-10T09:30:34;5.60;;;3.70;;
76896;SDS011;65856;52.178;21.176;2023-06-10T09:33:02;6.40;;;3.60;;
76896;SDS011;65856;52.178;21.176;2023-06-10T09:35:36;4.80;;;3.70;;
76896;SDS011;65856;52.178;21.176;2023-06-10T09:38:01;10.00;;;3.90;;
76896;SDS011;65856;52.178;21.176;2023-06-10T09:40:28;5.50;;;3.60;;
76896;SDS011;65856;52.178;21.176;2023-06-10T09:42:56;4.90;;;3.60;;
76896;SDS011;65856;52.178;21.176;2023-06-10T09:45:29;7.80;;;3.10;;
76896;SDS011;65856;52.178;21.176;2023-06-10T09:47:59;8.60;;;3.50;;
76896;SDS011;65856;52.178;21.176;2023-06-10T09:50:25;4.60;;;3.20;;
76896;SDS011;65856;52.178;21.176;2023-06-10T09:52:51;6.60;;;3.30;;
76896;SDS011;65856;52.178;21.176;2023-06-10T09:55:17;6.20;;;3.40;;
76896;SDS011;65856;52.178;21.176;2023-06-10T09:57:43;6.40;;;3.50;;
76896;SDS011;65856;52.178;21.176;2023-06-10T10:00:13;5.30;;;3.70;;
76896;SDS011;65856;52.178;21.176;2023-06-10T10:02:48;6.10;;;3.60;;
76896;SDS011;65856;52.178;21.176;2023-06-10T10:05:19;3.40;;;3.10;;
76896;SDS011;65856;52.178;21.176;2023-06-10T10:07:49;6.00;;;3.20;;
76896;SDS011;65856;52.178;21.176;2023-06-10T10:10:19;4.00;;;3.40;;
76896;SDS011;65856;52.178;21.176;2023-06-10T10:12:47;5.30;;;3.60;;
76896;SDS011;65856;52.178;21.176;2023-06-10T10:15:16;6.20;;;3.40;;
76896;SDS011;65856;52.178;21.176;2023-06-10T10:17:56;5.10;;;3.80;;
76896;SDS011;65856;52.178;21.176;2023-06-10T10:20:31;4.10;;;3.40;;
76896;SDS011;65856;52.178;21.176;2023-06-10T10:25:33;6.70;;;3.60;;
76896;SDS011;65856;52.178;21.176;2023-06-10T10:28:09;5.60;;;3.80;;
76896;SDS011;65856;52.178;21.176;2023-06-10T10:30:42;4.50;;;3.40;;
76896;SDS011;65856;52.178;21.176;2023-06-10T10:35:53;9.00;;;3.70;;
76896;SDS011;65856;52.178;21.176;2023-06-10T10:38:19;6.00;;;3.60;;
76896;SDS011;65856;52.178;21.176;2023-06-10T10:40:46;7.70;;;3.40;;
76896;SDS011;65856;52.178;21.176;2023-06-10T10:43:13;6.60;;;3.50;;
76896;SDS011;65856;52.178;21.176;2023-06-10T10:45:41;8.80;;;3.70;;
76896;SDS011;65856;52.178;21.176;2023-06-10T10:48:09;7.60;;;3.70;;
76896;SDS011;65856;52.178;21.176;2023-06-10T10:50:37;4.20;;;3.40;;
76896;SDS011;65856;52.178;21.176;2023-06-10T10:53:05;6.30;;;3.60;;
76896;SDS011;65856;52.178;21.176;2023-06-10T10:55:31;6.50;;;3.60;;
76896;SDS011;65856;52.178;21.176;2023-06-10T10:58:06;5.60;;;3.50;;
76896;SDS011;65856;52.178;21.176;2023-06-10T11:00:36;5.10;;;3.60;;
76896;SDS011;65856;52.178;21.176;2023-06-10T11:03:13;5.40;;;3.90;;
76896;SDS011;65856;52.178;21.176;2023-06-10T11:05:47;8.10;;;4.30;;
76896;SDS011;65856;52.178;21.176;2023-06-10T11:08:15;8.10;;;4.00;;
76896;SDS011;65856;52.178;21.176;2023-06-10T11:11:17;7.00;;;4.20;;
76896;SDS011;65856;52.178;21.176;2023-06-10T11:16:28;6.50;;;4.30;;
76896;SDS011;65856;52.178;21.176;2023-06-10T11:18:55;7.10;;;3.80;;
76896;SDS011;65856;52.178;21.176;2023-06-10T11:21:24;7.10;;;4.10;;
76896;SDS011;65856;52.178;21.176;2023-06-10T11:23:53;6.20;;;4.00;;
76896;SDS011;65856;52.178;21.176;2023-06-10T11:31:23;6.60;;;4.00;;
76896;SDS011;65856;52.178;21.176;2023-06-10T11:36:25;5.80;;;4.40;;
76896;SDS011;65856;52.178;21.176;2023-06-10T11:39:00;6.90;;;4.50;;
76896;SDS011;65856;52.178;21.176;2023-06-10T11:41:29;6.50;;;4.60;;
76896;SDS011;65856;52.178;21.176;2023-06-10T11:43:59;6.00;;;4.60;;
76896;SDS011;65856;52.178;21.176;2023-06-10T11:46:39;5.20;;;4.50;;
76896;SDS011;65856;52.178;21.176;2023-06-10T11:49:07;8.30;;;4.80;;
76896;SDS011;65856;52.178;21.176;2023-06-10T11:51:37;6.70;;;4.60;;
76896;SDS011;65856;52.178;21.176;2023-06-10T11:54:07;6.50;;;4.50;;
76896;SDS011;65856;52.178;21.176;2023-06-10T11:56:34;6.60;;;4.20;;
76896;SDS011;65856;52.178;21.176;2023-06-10T11:59:02;6.60;;;4.70;;
76896;SDS011;65856;52.178;21.176;2023-06-10T12:01:42;6.80;;;4.70;;
76896;SDS011;65856;52.178;21.176;2023-06-10T12:04:11;8.60;;;4.70;;
76896;SDS011;65856;52.178;21.176;2023-06-10T12:06:47;6.30;;;4.60;;
76896;SDS011;65856;52.178;21.176;2023-06-10T12:11:57;7.80;;;4.50;;
76896;SDS011;65856;52.178;21.176;2023-06-10T12:14:51;8.00;;;4.70;;
76896;SDS011;65856;52.178;21.176;2023-06-10T12:20:02;5.50;;;4.80;;
76896;SDS011;65856;52.178;21.176;2023-06-10T12:22:40;8.60;;;4.90;;
76896;SDS011;65856;52.178;21.176;2023-06-10T12:25:08;8.50;;;5.00;;
76896;SDS011;65856;52.178;21.176;2023-06-10T12:27:35;10.00;;;4.90;;
76896;SDS011;65856;52.178;21.176;2023-06-10T12:30:05;7.90;;;4.90;;
76896;SDS011;65856;52.178;21.176;2023-06-10T12:32:40;8.00;;;4.70;;
76896;SDS011;65856;52.178;21.176;2023-06-10T12:35:09;5.80;;;4.50;;
76896;SDS011;65856;52.178;21.176;2023-06-10T12:37:38;8.30;;;4.80;;
76896;SDS011;65856;52.178;21.176;2023-06-10T12:40:05;9.70;;;5.20;;
76896;SDS011;65856;52.178;21.176;2023-06-10T12:42:35;6.00;;;4.80;;
76896;SDS011;65856;52.178;21.176;2023-06-10T12:45:03;19.20;;;5.80;;
76896;SDS011;65856;52.178;21.176;2023-06-10T12:47:36;6.10;;;4.80;;
76896;SDS011;65856;52.178;21.176;2023-06-10T12:50:07;6.90;;;4.90;;
76896;SDS011;65856;52.178;21.176;2023-06-10T12:52:34;7.40;;;5.10;;
76896;SDS011;65856;52.178;21.176;2023-06-10T12:54:59;6.50;;;5.20;;
76896;SDS011;65856;52.178;21.176;2023-06-10T12:57:25;7.80;;;5.30;;
76896;SDS011;65856;52.178;21.176;2023-06-10T12:59:51;6.50;;;5.20;;
76896;SDS011;65856;52.178;21.176;2023-06-10T13:04:49;9.50;;;5.80;;
76896;SDS011;65856;52.178;21.176;2023-06-10T13:07:16;8.10;;;4.90;;
76896;SDS011;65856;52.178;21.176;2023-06-10T13:09:43;11.80;;;5.50;;
76896;SDS011;65856;52.178;21.176;2023-06-10T13:12:09;6.10;;;4.90;;
76896;SDS011;65856;52.178;21.176;2023-06-10T13:14:36;8.50;;;5.20;;
76896;SDS011;65856;52.178;21.176;2023-06-10T13:17:03;5.70;;;5.10;;
76896;SDS011;65856;52.178;21.176;2023-06-10T13:19:32;7.70;;;5.10;;
76896;SDS011;65856;52.178;21.176;2023-06-10T13:21:58;6.10;;;4.80;;
76896;SDS011;65856;52.178;21.176;2023-06-10T13:24:24;8.50;;;5.10;;
76896;SDS011;65856;52.178;21.176;2023-06-10T13:26:51;9.10;;;5.30;;
76896;SDS011;65856;52.178;21.176;2023-06-10T13:29:17;6.40;;;5.30;;
76896;SDS011;65856;52.178;21.176;2023-06-10T13:31:42;9.60;;;5.10;;
76896;SDS011;65856;52.178;21.176;2023-06-10T13:34:08;9.80;;;4.70;;
76896;SDS011;65856;52.178;21.176;2023-06-10T13:36:33;9.40;;;4.80;;
76896;SDS011;65856;52.178;21.176;2023-06-10T13:38:59;8.90;;;5.10;;
76896;SDS011;65856;52.178;21.176;2023-06-10T13:41:25;6.50;;;4.80;;
76896;SDS011;65856;52.178;21.176;2023-06-10T13:43:53;8.20;;;5.00;;
76896;SDS011;65856;52.178;21.176;2023-06-10T13:46:20;8.60;;;5.10;;
76896;SDS011;65856;52.178;21.176;2023-06-10T13:48:47;9.20;;;5.10;;
76896;SDS011;65856;52.178;21.176;2023-06-10T13:51:12;8.70;;;5.50;;
76896;SDS011;65856;52.178;21.176;2023-06-10T13:53:38;10.30;;;5.30;;
76896;SDS011;65856;52.178;21.176;2023-06-10T13:56:04;9.30;;;4.90;;
76896;SDS011;65856;52.178;21.176;2023-06-10T13:58:30;7.40;;;4.90;;
76896;SDS011;65856;52.178;21.176;2023-06-10T14:00:55;10.70;;;4.70;;
76896;SDS011;65856;52.178;21.176;2023-06-10T14:03:21;8.50;;;5.20;;
76896;SDS011;65856;52.178;21.176;2023-06-10T14:05:46;7.00;;;5.10;;
76896;SDS011;65856;52.178;21.176;2023-06-10T14:08:12;10.80;;;5.00;;
76896;SDS011;65856;52.178;21.176;2023-06-10T14:10:38;7.30;;;5.30;;
76896;SDS011;65856;52.178;21.176;2023-06-10T14:13:04;8.10;;;5.40;;
76896;SDS011;65856;52.178;21.176;2023-06-10T14:15:30;7.70;;;5.50;;
76896;SDS011;65856;52.178;21.176;2023-06-10T14:17:55;9.60;;;5.00;;
76896;SDS011;65856;52.178;21.176;2023-06-10T14:20:21;8.50;;;4.60;;
76896;SDS011;65856;52.178;21.176;2023-06-10T14:22:46;8.20;;;4.70;;
76896;SDS011;65856;52.178;21.176;2023-06-10T14:25:12;6.30;;;4.70;;
76896;SDS011;65856;52.178;21.176;2023-06-10T14:27:37;8.30;;;4.70;;
76896;SDS011;65856;52.178;21.176;2023-06-10T14:30:03;10.20;;;4.90;;
76896;SDS011;65856;52.178;21.176;2023-06-10T14:32:30;7.40;;;5.00;;
76896;SDS011;65856;52.178;21.176;2023-06-10T14:34:56;7.50;;;4.70;;
76896;SDS011;65856;52.178;21.176;2023-06-10T14:37:21;6.20;;;4.40;;
76896;SDS011;65856;52.178;21.176;2023-06-10T14:39:47;7.30;;;4.50;;
76896;SDS011;65856;52.178;21.176;2023-06-10T14:42:12;6.80;;;4.70;;
76896;SDS011;65856;52.178;21.176;2023-06-10T14:44:38;7.00;;;4.40;;
76896;SDS011;65856;52.178;21.176;2023-06-10T14:47:04;6.90;;;4.60;;
76896;SDS011;65856;52.178;21.176;2023-06-10T14:49:29;7.70;;;5.10;;
76896;SDS011;65856;52.178;21.176;2023-06-10T14:51:55;4.60;;;4.10;;
76896;SDS011;65856;52.178;21.176;2023-06-10T14:54:20;8.30;;;5.00;;
76896;SDS011;65856;52.178;21.176;2023-06-10T14:56:46;6.60;;;4.50;;
76896;SDS011;65856;52.178;21.176;2023-06-10T14:59:12;7.80;;;4.90;;
76896;SDS011;65856;52.178;21.176;2023-06-10T15:01:37;7.30;;;4.90;;
76896;SDS011;65856;52.178;21.176;2023-06-10T15:04:03;7.50;;;4.50;;
76896;SDS011;65856;52.178;21.176;2023-06-10T15:06:28;6.00;;;4.70;;